Avon, Indiana
Current Conditions -  °F | °C
As of 4:27 PM on Monday 22 Dec 2014 (Local Time) from KEYE Reporting Station
Overcast Overcast  
Wind Chill: 39°   Ceiling: 2800
Heat Index: 44°   Visibility: 10mi
Dew Point: 39°   Wind: 9mph
Humidity: 82%   Direction: 120°ESE
Pressure: 29.75"   Gusts: NA
Location:  39.76°N, 86.4°W
Report Text: KEYE 222127Z AUTO 12008KT 10SM OVC028 07/04 A2975 RMK AO2 RAB12E22 P0000 T00670039
Loading
Personal Weather Stations






























Interactive Weather Map New forecast layout! Learn more

10-Day Weather Forecast

Advertisements
Track Severe Weather on mobile